Time;durP1;ratioP1;P1;durP2;ratioP2;P2;SDS_P1;SDS_P2;PMS_P1;PMS_P2;Temp;Humidity;BMP_temperature;BMP_pressure;BME280_temperature;BME280_humidity;BME280_pressure;Samples;Min_cycle;Max_cycle;Signal;HPM_P1;HPM_P2
2023/04/30 00:01:05;;;;;;;20.58;10.73;;;;;;;;;;5064965;28;20513;-81
2023/04/30 00:03:31;;;;;;;16.02;10.85;;;;;;;;;;5064498;28;20045;-82
2023/04/30 00:05:57;;;;;;;20.38;11.02;;;;;;;;;;5065206;28;20499;-82
2023/04/30 00:08:24;;;;;;;19.75;10.95;;;;;;;;;;5065543;28;20418;-81
2023/04/30 00:10:50;;;;;;;20.90;11.18;;;;;;;;;;5065188;28;20049;-81
2023/04/30 00:13:17;;;;;;;16.30;10.60;;;;;;;;;;5047126;28;20041;-81
2023/04/30 00:15:43;;;;;;;18.85;11.70;;;;;;;;;;5063942;28;20095;-82
2023/04/30 00:18:10;;;;;;;20.10;11.20;;;;;;;;;;5043804;28;20045;-81
2023/04/30 00:20:36;;;;;;;19.98;11.27;;;;;;;;;;5063162;28;20045;-82
2023/04/30 00:23:02;;;;;;;20.95;11.82;;;;;;;;;;5059594;28;20407;-83
2023/04/30 00:25:28;;;;;;;20.23;11.95;;;;;;;;;;5054258;28;20094;-82
2023/04/30 00:27:54;;;;;;;16.60;12.10;;;;;;;;;;5055539;28;20043;-81
2023/04/30 00:30:20;;;;;;;17.23;11.38;;;;;;;;;;5057196;28;20045;-83
2023/04/30 00:32:46;;;;;;;20.55;11.93;;;;;;;;;;5043731;28;20577;-83
2023/04/30 00:35:12;;;;;;;17.45;11.25;;;;;;;;;;5054316;28;20051;-84
2023/04/30 00:37:38;;;;;;;17.30;11.45;;;;;;;;;;5056340;28;20082;-83
2023/04/30 00:40:05;;;;;;;18.10;11.40;;;;;;;;;;5055045;28;20057;-82
2023/04/30 00:42:31;;;;;;;19.15;11.90;;;;;;;;;;5022082;28;20045;-82
2023/04/30 00:44:57;;;;;;;15.90;11.80;;;;;;;;;;5053837;28;20314;-82
2023/04/30 00:47:23;;;;;;;15.55;11.85;;;;;;;;;;5024886;28;20041;-82
2023/04/30 00:49:50;;;;;;;18.02;10.77;;;;;;;;;;5048364;28;20132;-81
2023/04/30 00:52:16;;;;;;;20.40;12.15;;;;;;;;;;5047465;28;20037;-82
2023/04/30 00:54:42;;;;;;;20.27;11.90;;;;;;;;;;5051979;28;20050;-81
2023/04/30 00:57:12;;;;;;;18.27;11.68;;;;;;;;;;5040824;28;20041;-81
2023/04/30 00:59:38;;;;;;;17.77;12.05;;;;;;;;;;5043709;28;20046;-82
2023/04/30 01:02:04;;;;;;;20.50;11.38;;;;;;;;;;5044404;28;20167;-83
2023/04/30 01:04:32;;;;;;;17.33;10.45;;;;;;;;;;5048794;28;20063;-82
2023/04/30 01:07:00;;;;;;;17.00;11.35;;;;;;;;;;5061569;28;20414;-82
2023/04/30 01:09:27;;;;;;;16.38;10.48;;;;;;;;;;5045592;28;20053;-82
2023/04/30 01:12:00;;;;;;;19.85;9.90;;;;;;;;;;5046854;28;20099;-82
2023/04/30 01:14:27;;;;;;;23.35;11.70;;;;;;;;;;5064924;28;20041;-82
2023/04/30 01:17:08;;;;;;;17.98;10.55;;;;;;;;;;5065574;28;20056;-82
2023/04/30 01:19:37;;;;;;;19.85;10.98;;;;;;;;;;5064418;28;20045;-81
2023/04/30 01:22:04;;;;;;;16.38;10.82;;;;;;;;;;5065643;28;20049;-82
2023/04/30 01:24:39;;;;;;;18.23;11.05;;;;;;;;;;5053565;28;20049;-82
2023/04/30 01:27:15;;;;;;;17.10;10.80;;;;;;;;;;5057213;28;20048;-81
2023/04/30 01:29:42;;;;;;;16.75;11.13;;;;;;;;;;5053225;28;20040;-82
2023/04/30 01:32:10;;;;;;;18.67;11.55;;;;;;;;;;5052573;28;20059;-82
2023/04/30 01:34:36;;;;;;;15.30;11.00;;;;;;;;;;5051383;28;20098;-82
2023/04/30 01:37:19;;;;;;;13.90;10.48;;;;;;;;;;5032334;28;20051;-82
2023/04/30 01:40:03;;;;;;;14.27;9.18;;;;;;;;;;5054122;28;20056;-83
2023/04/30 01:42:33;;;;;;;13.40;9.20;;;;;;;;;;5035309;28;20128;-82
2023/04/30 01:45:11;;;;;;;11.10;8.32;;;;;;;;;;5048877;28;20088;-81
2023/04/30 01:47:45;;;;;;;11.98;8.70;;;;;;;;;;5046873;28;20147;-82
2023/04/30 01:50:24;;;;;;;12.60;8.38;;;;;;;;;;5053755;28;20044;-82
2023/04/30 01:52:52;;;;;;;10.75;7.85;;;;;;;;;;5050270;28;20049;-82
2023/04/30 01:55:41;;;;;;;11.98;8.35;;;;;;;;;;5031333;28;20056;-81
2023/04/30 01:58:10;;;;;;;16.15;9.32;;;;;;;;;;5043612;28;20057;-82
2023/04/30 02:00:36;;;;;;;14.82;8.05;;;;;;;;;;5062658;28;20052;-83
2023/04/30 02:03:02;;;;;;;11.15;7.28;;;;;;;;;;5063353;28;20041;-83
2023/04/30 02:05:28;;;;;;;9.18;6.30;;;;;;;;;;5063871;28;20124;-81
2023/04/30 02:07:54;;;;;;;8.52;5.40;;;;;;;;;;5066957;28;20040;-82
2023/04/30 02:10:24;;;;;;;7.63;5.10;;;;;;;;;;5071140;28;20045;-81
2023/04/30 02:12:50;;;;;;;10.20;5.32;;;;;;;;;;5062944;28;20045;-82
2023/04/30 02:15:16;;;;;;;19.02;7.10;;;;;;;;;;5061303;28;20099;-81
2023/04/30 02:17:45;;;;;;;11.27;7.00;;;;;;;;;;5063215;28;20132;-82
2023/04/30 02:20:11;;;;;;;11.23;6.50;;;;;;;;;;5040229;28;20081;-82
2023/04/30 02:22:38;;;;;;;12.68;6.55;;;;;;;;;;5057051;28;20166;-82
2023/04/30 02:25:04;;;;;;;12.98;6.47;;;;;;;;;;5057428;28;20081;-81
2023/04/30 02:27:31;;;;;;;9.95;5.82;;;;;;;;;;5056530;28;20048;-82
2023/04/30 02:29:57;;;;;;;8.02;6.03;;;;;;;;;;5061854;28;20044;-82
2023/04/30 02:32:24;;;;;;;9.35;6.03;;;;;;;;;;5067357;28;20076;-80
2023/04/30 02:34:50;;;;;;;9.15;5.97;;;;;;;;;;5056884;28;20045;-81
2023/04/30 02:37:16;;;;;;;9.30;5.80;;;;;;;;;;5063825;28;20045;-82
2023/04/30 02:39:42;;;;;;;11.68;5.97;;;;;;;;;;5051723;28;20472;-82
2023/04/30 02:42:08;;;;;;;9.13;6.13;;;;;;;;;;5066735;28;20045;-82
2023/04/30 02:44:34;;;;;;;7.63;5.15;;;;;;;;;;5058349;28;20056;-82
2023/04/30 02:47:01;;;;;;;8.07;6.15;;;;;;;;;;5058491;28;20064;-82
2023/04/30 02:49:27;;;;;;;8.13;5.35;;;;;;;;;;5059981;28;20586;-83
2023/04/30 02:51:53;;;;;;;7.40;5.70;;;;;;;;;;5046965;28;20049;-82
2023/04/30 02:54:19;;;;;;;8.00;5.70;;;;;;;;;;5059974;28;20047;-82
2023/04/30 02:56:46;;;;;;;8.15;6.45;;;;;;;;;;5039678;28;20091;-82
2023/04/30 02:59:12;;;;;;;9.10;6.40;;;;;;;;;;5059054;28;20056;-82
2023/04/30 03:01:38;;;;;;;8.20;6.03;;;;;;;;;;5059341;28;20037;-82
2023/04/30 03:04:04;;;;;;;9.55;6.35;;;;;;;;;;5058693;28;20429;-81
2023/04/30 03:06:33;;;;;;;8.75;6.60;;;;;;;;;;5059688;28;20041;-81
2023/04/30 03:09:00;;;;;;;13.00;8.32;;;;;;;;;;5048262;28;20033;-85
2023/04/30 03:11:26;;;;;;;15.43;9.15;;;;;;;;;;5049067;28;20059;-81
2023/04/30 03:13:52;;;;;;;9.95;7.35;;;;;;;;;;5047272;28;20041;-82
2023/04/30 03:16:20;;;;;;;10.05;7.25;;;;;;;;;;5048377;28;20076;-83
2023/04/30 03:18:47;;;;;;;8.88;6.72;;;;;;;;;;5043415;28;20041;-82
2023/04/30 03:21:13;;;;;;;10.18;7.38;;;;;;;;;;5016902;28;20392;-83
2023/04/30 03:23:39;;;;;;;9.48;6.65;;;;;;;;;;5049559;28;20099;-82
2023/04/30 03:26:05;;;;;;;10.68;6.63;;;;;;;;;;5054147;28;20053;-82
2023/04/30 03:28:31;;;;;;;8.68;6.97;;;;;;;;;;5044549;28;20403;-82
2023/04/30 03:30:58;;;;;;;11.68;7.43;;;;;;;;;;5044448;28;20049;-82
2023/04/30 03:33:24;;;;;;;9.88;7.15;;;;;;;;;;5048476;28;20116;-82
2023/04/30 03:35:51;;;;;;;8.18;6.07;;;;;;;;;;5047228;28;20042;-82
2023/04/30 03:38:17;;;;;;;10.98;5.80;;;;;;;;;;5027571;28;20050;-81
2023/04/30 03:40:43;;;;;;;7.70;6.10;;;;;;;;;;5046536;28;20088;-83
2023/04/30 03:43:09;;;;;;;7.57;5.88;;;;;;;;;;5049464;28;20073;-81
2023/04/30 03:45:35;;;;;;;10.15;5.30;;;;;;;;;;5030513;28;20091;-83
2023/04/30 03:48:01;;;;;;;8.50;5.63;;;;;;;;;;5048902;28;20049;-83
2023/04/30 03:50:27;;;;;;;10.57;6.78;;;;;;;;;;5056849;28;20041;-82
2023/04/30 03:52:53;;;;;;;11.23;7.15;;;;;;;;;;5039388;28;20049;-81
2023/04/30 03:55:19;;;;;;;9.18;6.50;;;;;;;;;;5046849;28;20487;-82
2023/04/30 03:57:45;;;;;;;9.13;6.22;;;;;;;;;;5052535;28;20049;-82
2023/04/30 04:00:15;;;;;;;11.52;6.50;;;;;;;;;;5049875;28;20045;-81
2023/04/30 04:02:41;;;;;;;8.68;6.35;;;;;;;;;;5062425;28;20388;-82
2023/04/30 04:05:07;;;;;;;8.93;5.72;;;;;;;;;;5062082;28;20055;-82
2023/04/30 04:07:33;;;;;;;6.97;5.50;;;;;;;;;;5062308;28;20037;-82
2023/04/30 04:09:59;;;;;;;8.77;6.07;;;;;;;;;;5061292;28;20049;-81
2023/04/30 04:12:25;;;;;;;9.90;5.90;;;;;;;;;;5045045;28;20056;-81
2023/04/30 04:14:51;;;;;;;7.68;5.43;;;;;;;;;;5051561;28;20056;-82
2023/04/30 04:17:17;;;;;;;10.40;5.78;;;;;;;;;;5049524;28;20167;-82
2023/04/30 04:19:44;;;;;;;10.00;5.40;;;;;;;;;;5044415;28;20088;-81
2023/04/30 04:22:10;;;;;;;7.68;5.10;;;;;;;;;;5032791;28;20163;-82
2023/04/30 04:24:37;;;;;;;9.52;5.55;;;;;;;;;;5049704;28;20058;-82
2023/04/30 04:27:03;;;;;;;10.10;6.32;;;;;;;;;;5055793;28;20227;-83
2023/04/30 04:29:29;;;;;;;9.77;6.45;;;;;;;;;;5053884;28;20040;-81
2023/04/30 04:31:55;;;;;;;11.77;7.35;;;;;;;;;;5019281;28;20049;-82
2023/04/30 04:34:21;;;;;;;10.52;5.57;;;;;;;;;;5050375;28;20040;-81
2023/04/30 04:36:47;;;;;;;13.05;7.10;;;;;;;;;;5044585;28;20060;-82
2023/04/30 04:39:14;;;;;;;8.82;6.22;;;;;;;;;;5051142;28;20045;-81
2023/04/30 04:41:40;;;;;;;13.63;6.35;;;;;;;;;;5048813;28;20048;-83
2023/04/30 04:44:06;;;;;;;12.30;6.70;;;;;;;;;;5035539;28;20107;-83
2023/04/30 04:46:34;;;;;;;13.68;7.45;;;;;;;;;;5051154;28;20165;-84
2023/04/30 04:49:00;;;;;;;12.95;7.32;;;;;;;;;;5048507;28;20049;-82
2023/04/30 04:51:26;;;;;;;13.30;7.07;;;;;;;;;;5030840;28;20152;-83
2023/04/30 04:53:52;;;;;;;14.18;7.97;;;;;;;;;;5049739;28;20071;-82
2023/04/30 04:56:18;;;;;;;13.55;7.38;;;;;;;;;;5048510;28;20108;-82
2023/04/30 04:58:45;;;;;;;10.18;6.35;;;;;;;;;;5053983;28;20046;-83
2023/04/30 05:01:11;;;;;;;13.48;7.30;;;;;;;;;;5050788;28;20132;-82
2023/04/30 05:03:37;;;;;;;11.60;7.10;;;;;;;;;;5047467;28;20040;-82
2023/04/30 05:06:04;;;;;;;10.88;7.57;;;;;;;;;;5043355;28;20049;-82
2023/04/30 05:08:30;;;;;;;11.27;7.80;;;;;;;;;;5047322;28;20045;-82
2023/04/30 05:10:56;;;;;;;14.25;8.88;;;;;;;;;;5025199;28;20050;-81
2023/04/30 05:13:22;;;;;;;15.90;9.75;;;;;;;;;;5058450;28;20118;-82
2023/04/30 05:15:52;;;;;;;14.27;9.13;;;;;;;;;;5058494;28;20418;-82
2023/04/30 05:18:18;;;;;;;15.38;9.52;;;;;;;;;;5059078;28;20049;-81
2023/04/30 05:20:44;;;;;;;14.70;7.70;;;;;;;;;;5059136;28;20049;-80
2023/04/30 05:23:11;;;;;;;14.48;7.63;;;;;;;;;;5058744;28;20507;-83
2023/04/30 05:25:37;;;;;;;14.70;8.20;;;;;;;;;;5064745;28;20499;-82
2023/04/30 05:28:04;;;;;;;27.92;15.18;;;;;;;;;;5072009;28;20048;-81
2023/04/30 05:30:30;;;;;;;23.92;11.70;;;;;;;;;;5059558;28;20069;-82
2023/04/30 05:32:57;;;;;;;35.03;15.00;;;;;;;;;;5060521;28;20064;-81
2023/04/30 05:35:23;;;;;;;28.88;13.80;;;;;;;;;;5059555;28;20072;-81
2023/04/30 05:37:49;;;;;;;22.17;9.50;;;;;;;;;;5057682;28;20555;-81
2023/04/30 05:40:15;;;;;;;18.08;9.77;;;;;;;;;;5055325;28;20467;-82
2023/04/30 05:42:45;;;;;;;16.73;7.38;;;;;;;;;;5050249;28;20049;-82
2023/04/30 05:45:13;;;;;;;14.50;6.00;;;;;;;;;;5050689;28;20098;-83
2023/04/30 05:47:39;;;;;;;13.65;5.90;;;;;;;;;;5050961;28;20044;-82
2023/04/30 05:50:06;;;;;;;12.07;5.38;;;;;;;;;;5056882;28;20040;-82
2023/04/30 05:52:32;;;;;;;10.77;5.07;;;;;;;;;;5044305;28;20068;-81
2023/04/30 05:54:58;;;;;;;13.65;5.10;;;;;;;;;;5046930;28;20045;-81
2023/04/30 05:57:24;;;;;;;13.13;4.88;;;;;;;;;;5060293;28;20052;-81
2023/04/30 05:59:50;;;;;;;11.80;4.55;;;;;;;;;;5062867;28;20053;-81
2023/04/30 06:02:16;;;;;;;9.85;4.43;;;;;;;;;;5074262;28;20093;-82
2023/04/30 06:04:42;;;;;;;16.42;4.00;;;;;;;;;;5064208;28;20181;-81
2023/04/30 06:07:08;;;;;;;14.18;3.75;;;;;;;;;;5063770;28;20053;-82
2023/04/30 06:09:34;;;;;;;14.18;3.72;;;;;;;;;;5062854;28;20435;-81
2023/04/30 06:12:01;;;;;;;10.80;3.38;;;;;;;;;;5062861;28;20479;-82
2023/04/30 06:14:27;;;;;;;10.38;3.10;;;;;;;;;;5046432;28;20077;-82
2023/04/30 06:16:53;;;;;;;12.45;3.45;;;;;;;;;;5053966;28;20389;-81
2023/04/30 06:19:19;;;;;;;12.63;3.10;;;;;;;;;;5061233;28;20090;-82
2023/04/30 06:21:45;;;;;;;12.38;2.97;;;;;;;;;;5061160;28;20100;-81
2023/04/30 06:24:12;;;;;;;12.65;2.92;;;;;;;;;;5047644;28;20065;-82
2023/04/30 06:26:38;;;;;;;13.70;2.92;;;;;;;;;;5058183;28;20056;-82
2023/04/30 06:29:04;;;;;;;9.95;3.13;;;;;;;;;;5051596;28;20061;-80
2023/04/30 06:31:30;;;;;;;13.20;3.13;;;;;;;;;;5053426;28;20044;-82
2023/04/30 06:33:56;;;;;;;13.15;3.05;;;;;;;;;;5018673;28;20056;-81
2023/04/30 06:36:22;;;;;;;12.23;3.20;;;;;;;;;;5053442;28;20041;-81
2023/04/30 06:38:48;;;;;;;10.85;3.50;;;;;;;;;;5049965;28;20128;-81
2023/04/30 06:41:15;;;;;;;11.80;3.20;;;;;;;;;;5057501;28;20045;-80
2023/04/30 06:43:41;;;;;;;10.32;3.40;;;;;;;;;;5059564;28;20407;-81
2023/04/30 06:46:07;;;;;;;12.38;3.17;;;;;;;;;;5040442;28;20057;-81
2023/04/30 06:48:33;;;;;;;15.68;3.88;;;;;;;;;;5063685;28;20120;-81
2023/04/30 06:50:59;;;;;;;14.48;3.22;;;;;;;;;;5065604;28;20045;-81
2023/04/30 06:53:25;;;;;;;16.02;3.47;;;;;;;;;;5065240;28;20108;-81
2023/04/30 06:55:51;;;;;;;16.38;3.30;;;;;;;;;;5046127;28;20053;-81
2023/04/30 06:58:18;;;;;;;12.88;3.10;;;;;;;;;;5064975;28;20568;-81
2023/04/30 07:00:44;;;;;;;12.07;2.83;;;;;;;;;;5046244;28;20076;-82
2023/04/30 07:03:11;;;;;;;13.55;3.03;;;;;;;;;;5063159;28;20395;-81
2023/04/30 07:05:37;;;;;;;10.63;2.75;;;;;;;;;;5063333;28;20041;-82
2023/04/30 07:08:03;;;;;;;11.80;2.97;;;;;;;;;;5060835;28;20044;-82
2023/04/30 07:10:30;;;;;;;8.10;2.70;;;;;;;;;;5059089;28;20049;-82
2023/04/30 07:12:56;;;;;;;11.77;3.20;;;;;;;;;;5059406;28;20499;-82
2023/04/30 07:15:22;;;;;;;13.80;3.08;;;;;;;;;;5082016;28;20049;-81
2023/04/30 07:17:48;;;;;;;12.82;3.10;;;;;;;;;;5064605;28;20442;-82
2023/04/30 07:20:15;;;;;;;16.17;3.20;;;;;;;;;;5060342;28;20431;-81
2023/04/30 07:22:43;;;;;;;10.25;2.65;;;;;;;;;;5041570;28;20058;-81
2023/04/30 07:25:10;;;;;;;11.93;2.50;;;;;;;;;;5041657;28;20084;-81
2023/04/30 07:27:36;;;;;;;10.63;2.42;;;;;;;;;;5041340;28;20056;-82
2023/04/30 07:30:02;;;;;;;10.63;2.58;;;;;;;;;;5049755;28;20045;-82
2023/04/30 07:32:29;;;;;;;12.70;2.50;;;;;;;;;;5063516;28;20125;-81
2023/04/30 07:34:55;;;;;;;12.35;2.50;;;;;;;;;;5065384;28;20045;-81
2023/04/30 07:37:21;;;;;;;12.18;2.83;;;;;;;;;;5065669;28;20049;-82
2023/04/30 07:39:47;;;;;;;10.07;2.65;;;;;;;;;;5066213;28;20040;-81
2023/04/30 07:42:13;;;;;;;10.57;3.40;;;;;;;;;;5064076;28;20040;-82
2023/04/30 07:44:40;;;;;;;10.02;2.78;;;;;;;;;;5066407;28;20045;-82
2023/04/30 07:47:06;;;;;;;11.93;2.97;;;;;;;;;;5063766;28;20445;-82
2023/04/30 07:49:32;;;;;;;11.23;3.08;;;;;;;;;;5083509;28;20048;-83
2023/04/30 07:52:00;;;;;;;10.68;3.40;;;;;;;;;;5045865;28;20052;-82
2023/04/30 07:54:26;;;;;;;13.88;3.38;;;;;;;;;;5049509;28;20045;-82
2023/04/30 07:56:52;;;;;;;13.60;3.75;;;;;;;;;;5044734;28;20041;-82
2023/04/30 07:59:20;;;;;;;13.90;3.55;;;;;;;;;;5062161;28;20053;-80
2023/04/30 08:01:46;;;;;;;14.40;3.42;;;;;;;;;;5085433;28;20056;-81
2023/04/30 08:04:12;;;;;;;14.60;4.55;;;;;;;;;;5077373;28;20041;-81
2023/04/30 08:06:38;;;;;;;10.50;3.15;;;;;;;;;;5064617;28;20566;-80
2023/04/30 08:09:04;;;;;;;10.55;3.00;;;;;;;;;;5057300;28;20453;-81
2023/04/30 08:11:30;;;;;;;11.45;3.47;;;;;;;;;;5032671;28;20102;-81
2023/04/30 08:13:56;;;;;;;12.60;3.40;;;;;;;;;;5064095;28;20063;-81
2023/04/30 08:16:22;;;;;;;12.93;3.50;;;;;;;;;;5064748;28;20068;-83
2023/04/30 08:18:48;;;;;;;10.90;3.13;;;;;;;;;;5065260;28;20049;-81
2023/04/30 08:21:15;;;;;;;13.63;4.00;;;;;;;;;;5064285;28;20053;-82
2023/04/30 08:23:41;;;;;;;14.68;4.30;;;;;;;;;;5055044;28;20059;-81
2023/04/30 08:26:07;;;;;;;11.52;3.33;;;;;;;;;;5064430;28;20053;-81
2023/04/30 08:28:33;;;;;;;12.35;3.63;;;;;;;;;;5064691;28;20072;-81
2023/04/30 08:30:59;;;;;;;13.57;3.10;;;;;;;;;;5063044;28;20056;-82
2023/04/30 08:33:25;;;;;;;13.35;3.72;;;;;;;;;;5061283;28;20071;-81
2023/04/30 08:35:51;;;;;;;8.57;2.67;;;;;;;;;;5062746;28;20041;-81
2023/04/30 08:38:17;;;;;;;11.10;2.97;;;;;;;;;;5062791;28;20043;-82
2023/04/30 08:40:47;;;;;;;8.88;2.58;;;;;;;;;;5046806;28;20045;-81
2023/04/30 08:43:14;;;;;;;11.88;3.25;;;;;;;;;;5063544;28;20183;-82
2023/04/30 08:45:40;;;;;;;13.32;2.97;;;;;;;;;;5062372;28;20044;-83
2023/04/30 08:48:09;;;;;;;10.25;2.85;;;;;;;;;;5045956;28;20045;-80
2023/04/30 08:50:36;;;;;;;10.70;2.72;;;;;;;;;;5045223;28;20041;-81
2023/04/30 08:53:02;;;;;;;12.88;3.20;;;;;;;;;;5053196;28;20047;-83
2023/04/30 08:55:28;;;;;;;10.18;2.78;;;;;;;;;;5080292;28;20051;-81
2023/04/30 08:57:54;;;;;;;12.77;2.90;;;;;;;;;;5066750;28;20045;-83
2023/04/30 09:00:20;;;;;;;13.32;3.00;;;;;;;;;;5065311;28;20516;-82
2023/04/30 09:02:47;;;;;;;10.02;2.53;;;;;;;;;;5065899;28;20124;-82
2023/04/30 09:05:14;;;;;;;10.95;2.80;;;;;;;;;;5045814;28;20052;-82
2023/04/30 09:07:41;;;;;;;10.05;3.15;;;;;;;;;;5063431;28;20036;-82
2023/04/30 09:10:28;;;;;;;11.05;2.75;;;;;;;;;;5047467;28;20100;-83
2023/04/30 09:13:00;;;;;;;9.32;2.70;;;;;;;;;;5046296;28;20077;-81
2023/04/30 09:15:27;;;;;;;12.35;2.95;;;;;;;;;;5064546;28;20049;-81
2023/04/30 09:18:13;;;;;;;13.80;3.20;;;;;;;;;;5063420;28;20045;-81
2023/04/30 09:20:53;;;;;;;12.73;3.13;;;;;;;;;;5028765;28;20469;-81
2023/04/30 09:23:20;;;;;;;11.52;3.33;;;;;;;;;;5059039;28;20179;-82
2023/04/30 09:25:46;;;;;;;11.50;3.28;;;;;;;;;;5055578;28;20045;-82
2023/04/30 09:28:12;;;;;;;9.63;3.42;;;;;;;;;;5042388;28;20056;-81
2023/04/30 09:30:39;;;;;;;10.27;4.50;;;;;;;;;;5055404;28;20045;-82
2023/04/30 09:33:06;;;;;;;11.43;4.53;;;;;;;;;;5059599;28;20396;-82
2023/04/30 09:35:33;;;;;;;12.45;2.92;;;;;;;;;;5065708;28;20072;-82
2023/04/30 09:38:03;;;;;;;10.15;2.75;;;;;;;;;;5060916;28;20045;-82
2023/04/30 09:40:34;;;;;;;13.27;2.90;;;;;;;;;;5061822;28;20044;-82
2023/04/30 09:43:01;;;;;;;14.10;3.15;;;;;;;;;;5042612;28;20384;-81
2023/04/30 09:45:27;;;;;;;10.57;3.33;;;;;;;;;;5042692;28;20046;-82
2023/04/30 09:47:53;;;;;;;12.73;3.15;;;;;;;;;;5053312;28;20120;-81
2023/04/30 09:50:19;;;;;;;12.02;3.00;;;;;;;;;;5062079;28;20044;-81
2023/04/30 09:52:51;;;;;;;8.88;2.60;;;;;;;;;;5062034;28;20155;-82
2023/04/30 09:55:18;;;;;;;11.85;2.50;;;;;;;;;;5062040;28;20041;-82
2023/04/30 09:57:44;;;;;;;10.20;2.40;;;;;;;;;;5059745;28;20045;-82
2023/04/30 10:00:10;;;;;;;10.52;2.67;;;;;;;;;;5050535;28;20471;-81
2023/04/30 10:02:37;;;;;;;8.63;2.65;;;;;;;;;;5059944;28;20040;-82
2023/04/30 10:05:03;;;;;;;11.55;2.60;;;;;;;;;;5061541;28;20056;-81
2023/04/30 10:07:32;;;;;;;9.07;3.00;;;;;;;;;;5061932;28;20037;-81
2023/04/30 10:10:02;;;;;;;8.00;2.67;;;;;;;;;;5061253;28;20047;-83
2023/04/30 10:12:44;;;;;;;11.85;2.90;;;;;;;;;;5061975;28;20053;-82
2023/04/30 10:15:15;;;;;;;12.50;2.83;;;;;;;;;;5044268;28;20033;-80
2023/04/30 10:17:44;;;;;;;8.38;2.60;;;;;;;;;;5063510;28;20048;-81
2023/04/30 10:20:11;;;;;;;10.60;2.60;;;;;;;;;;5062662;28;20044;-81
2023/04/30 10:22:37;;;;;;;13.30;3.90;;;;;;;;;;5062269;28;20132;-83
2023/04/30 10:25:03;;;;;;;11.45;3.00;;;;;;;;;;5063353;28;20041;-81
2023/04/30 10:27:30;;;;;;;11.55;2.80;;;;;;;;;;5031572;28;20036;-81
2023/04/30 10:29:56;;;;;;;11.65;2.95;;;;;;;;;;5082485;28;20121;-83
2023/04/30 10:32:23;;;;;;;9.20;2.65;;;;;;;;;;5065332;28;20041;-82
2023/04/30 10:35:08;;;;;;;10.90;3.00;;;;;;;;;;5063912;28;20037;-83
2023/04/30 10:37:45;;;;;;;13.98;3.13;;;;;;;;;;5062492;28;20045;-81
2023/04/30 10:40:13;;;;;;;10.30;2.95;;;;;;;;;;5062359;28;20059;-82
2023/04/30 10:42:44;;;;;;;10.25;2.90;;;;;;;;;;5061878;28;20045;-81
2023/04/30 10:45:11;;;;;;;8.90;2.90;;;;;;;;;;5061954;28;20037;-81
2023/04/30 10:47:38;;;;;;;10.32;3.03;;;;;;;;;;5061325;28;20052;-81
2023/04/30 10:50:08;;;;;;;9.65;2.80;;;;;;;;;;5060000;28;20088;-80
2023/04/30 10:52:34;;;;;;;12.30;2.92;;;;;;;;;;5043280;28;20057;-82
2023/04/30 10:55:04;;;;;;;10.02;2.90;;;;;;;;;;5042432;28;20045;-81
2023/04/30 10:57:30;;;;;;;9.13;2.97;;;;;;;;;;5042001;28;20053;-80
2023/04/30 11:00:09;;;;;;;7.28;2.80;;;;;;;;;;5044848;28;20124;-81
2023/04/30 11:02:42;;;;;;;10.40;3.13;;;;;;;;;;5044004;28;20381;-82
2023/04/30 11:05:18;;;;;;;11.00;3.03;;;;;;;;;;5048770;28;20056;-80
2023/04/30 11:07:56;;;;;;;10.02;3.25;;;;;;;;;;5063117;28;20125;-82
2023/04/30 11:10:24;;;;;;;11.63;3.00;;;;;;;;;;5056132;28;20040;-84
2023/04/30 11:12:51;;;;;;;10.10;4.10;;;;;;;;;;5069363;28;20283;-83
2023/04/30 11:15:19;;;;;;;12.07;3.80;;;;;;;;;;5054576;28;20037;-83
2023/04/30 11:17:45;;;;;;;21.58;9.55;;;;;;;;;;5065532;28;20079;-82
2023/04/30 11:20:13;;;;;;;8.30;3.22;;;;;;;;;;5066045;28;20041;-81
2023/04/30 11:22:39;;;;;;;8.40;3.00;;;;;;;;;;5067681;28;20049;-82
2023/04/30 11:25:08;;;;;;;9.25;3.00;;;;;;;;;;5068718;28;20522;-82
2023/04/30 11:27:34;;;;;;;8.18;3.60;;;;;;;;;;5029796;28;20495;-84
2023/04/30 11:30:02;;;;;;;10.57;3.92;;;;;;;;;;5047524;28;20052;-85
2023/04/30 11:32:37;;;;;;;8.48;2.60;;;;;;;;;;5048709;28;20040;-83
2023/04/30 11:35:04;;;;;;;10.95;3.20;;;;;;;;;;5065947;28;20041;-82
2023/04/30 11:37:43;;;;;;;9.82;3.17;;;;;;;;;;5066192;28;20104;-82
2023/04/30 11:40:10;;;;;;;10.05;3.10;;;;;;;;;;5065870;28;20056;-84
2023/04/30 11:42:40;;;;;;;12.32;3.47;;;;;;;;;;5032070;28;20127;-83
2023/04/30 11:45:10;;;;;;;11.15;3.30;;;;;;;;;;5068563;28;20068;-83
2023/04/30 11:47:42;;;;;;;9.55;3.50;;;;;;;;;;5066914;28;20052;-83
2023/04/30 11:50:09;;;;;;;8.50;3.20;;;;;;;;;;5066811;28;20044;-83
2023/04/30 11:52:35;;;;;;;9.00;3.13;;;;;;;;;;5064049;28;20465;-82
2023/04/30 11:55:04;;;;;;;10.88;3.55;;;;;;;;;;5058906;28;20094;-81
2023/04/30 11:57:43;;;;;;;9.23;3.10;;;;;;;;;;5056770;28;20045;-82
2023/04/30 12:00:12;;;;;;;9.43;3.00;;;;;;;;;;5057058;28;20036;-84
2023/04/30 12:02:38;;;;;;;9.10;2.70;;;;;;;;;;5061530;28;20041;-81
2023/04/30 12:05:06;;;;;;;7.93;3.00;;;;;;;;;;5065679;28;20045;-81
2023/04/30 12:07:32;;;;;;;6.43;2.45;;;;;;;;;;5061693;28;20047;-81
2023/04/30 12:09:58;;;;;;;7.97;2.83;;;;;;;;;;5072158;28;20446;-82
2023/04/30 12:12:31;;;;;;;8.65;2.90;;;;;;;;;;5061246;28;20042;-82
2023/04/30 12:14:57;;;;;;;9.25;3.00;;;;;;;;;;5057058;28;20076;-81
2023/04/30 12:17:33;;;;;;;11.52;3.97;;;;;;;;;;5047166;28;20041;-81
2023/04/30 12:19:59;;;;;;;9.40;4.32;;;;;;;;;;5045982;28;20116;-82
2023/04/30 12:22:26;;;;;;;8.32;3.15;;;;;;;;;;5025615;28;20045;-82
2023/04/30 12:24:52;;;;;;;11.27;3.47;;;;;;;;;;5067370;28;20048;-81
2023/04/30 12:27:18;;;;;;;7.55;3.03;;;;;;;;;;5064665;28;20127;-82
2023/04/30 12:29:46;;;;;;;9.23;4.50;;;;;;;;;;5064266;28;20127;-83
2023/04/30 12:32:15;;;;;;;7.78;3.13;;;;;;;;;;5056927;28;20403;-81
2023/04/30 12:34:41;;;;;;;12.65;5.28;;;;;;;;;;5041129;28;20045;-82
2023/04/30 12:37:07;;;;;;;17.50;9.20;;;;;;;;;;5060455;28;20037;-81
2023/04/30 12:39:33;;;;;;;10.05;4.10;;;;;;;;;;5062349;28;20133;-81
2023/04/30 12:42:00;;;;;;;10.65;3.25;;;;;;;;;;5043388;28;20044;-81
2023/04/30 12:44:27;;;;;;;11.90;7.18;;;;;;;;;;5041601;28;20152;-81
2023/04/30 12:46:56;;;;;;;9.30;4.80;;;;;;;;;;5045773;28;20052;-82
2023/04/30 12:49:23;;;;;;;11.25;4.78;;;;;;;;;;5058771;28;20056;-81
2023/04/30 12:51:49;;;;;;;7.45;3.33;;;;;;;;;;5061871;28;20101;-82
2023/04/30 12:54:23;;;;;;;11.77;5.22;;;;;;;;;;5015902;28;20081;-82
2023/04/30 12:56:57;;;;;;;10.57;4.82;;;;;;;;;;5061935;28;20037;-82
2023/04/30 12:59:23;;;;;;;7.28;3.15;;;;;;;;;;5060847;28;20049;-81
2023/04/30 13:01:49;;;;;;;9.23;3.20;;;;;;;;;;5076948;28;20051;-81
2023/04/30 13:04:16;;;;;;;8.32;3.28;;;;;;;;;;5045210;28;20040;-81
2023/04/30 13:06:42;;;;;;;9.10;3.10;;;;;;;;;;5063387;28;20070;-81
2023/04/30 13:09:09;;;;;;;6.75;2.88;;;;;;;;;;5065422;28;20041;-80
2023/04/30 13:11:35;;;;;;;8.18;2.80;;;;;;;;;;5064131;28;20049;-81
2023/04/30 13:14:01;;;;;;;9.05;2.80;;;;;;;;;;5063916;28;20075;-81
2023/04/30 13:16:27;;;;;;;9.93;3.58;;;;;;;;;;5063994;28;20114;-82
2023/04/30 13:18:53;;;;;;;7.88;2.85;;;;;;;;;;5035811;28;20057;-81
2023/04/30 13:21:20;;;;;;;6.03;2.40;;;;;;;;;;5059089;28;20048;-81
2023/04/30 13:23:46;;;;;;;7.65;2.95;;;;;;;;;;5057276;28;20050;-82
2023/04/30 13:26:12;;;;;;;7.53;2.50;;;;;;;;;;5040873;28;20164;-81
2023/04/30 13:28:38;;;;;;;7.70;3.28;;;;;;;;;;5041739;28;20037;-82
2023/04/30 13:31:05;;;;;;;6.25;2.70;;;;;;;;;;5049737;28;20041;-81
2023/04/30 13:33:31;;;;;;;7.82;3.38;;;;;;;;;;5029266;28;20074;-81
2023/04/30 13:35:57;;;;;;;8.70;3.60;;;;;;;;;;5059758;28;20048;-81
2023/04/30 13:38:23;;;;;;;7.97;3.10;;;;;;;;;;5053553;28;20491;-81
2023/04/30 13:40:49;;;;;;;8.13;2.97;;;;;;;;;;5041128;28;20430;-81
2023/04/30 13:43:15;;;;;;;6.75;2.60;;;;;;;;;;5041097;28;20403;-81
2023/04/30 13:45:41;;;;;;;6.18;2.20;;;;;;;;;;5041942;28;20120;-82
2023/04/30 13:48:07;;;;;;;8.48;2.80;;;;;;;;;;5060673;28;20052;-80
2023/04/30 13:50:33;;;;;;;7.72;2.30;;;;;;;;;;5061626;28;20041;-81
2023/04/30 13:52:59;;;;;;;7.03;2.47;;;;;;;;;;5059824;28;20089;-82
2023/04/30 13:55:26;;;;;;;6.22;2.67;;;;;;;;;;5050261;28;20041;-82
2023/04/30 13:57:52;;;;;;;5.55;2.60;;;;;;;;;;5042233;28;20049;-82
2023/04/30 14:00:18;;;;;;;7.35;2.30;;;;;;;;;;5042300;28;20065;-82
2023/04/30 14:02:44;;;;;;;6.93;2.50;;;;;;;;;;5044152;28;20094;-82
2023/04/30 14:05:10;;;;;;;7.88;2.67;;;;;;;;;;5042390;28;20044;-81
2023/04/30 14:07:36;;;;;;;6.15;1.90;;;;;;;;;;5062020;28;20045;-82
2023/04/30 14:10:02;;;;;;;6.15;2.00;;;;;;;;;;5063513;28;20049;-83
2023/04/30 14:12:29;;;;;;;5.38;2.25;;;;;;;;;;5060838;28;20045;-82
2023/04/30 14:14:56;;;;;;;6.20;2.42;;;;;;;;;;5044020;28;20091;-82
2023/04/30 14:17:22;;;;;;;8.73;2.72;;;;;;;;;;5061228;28;20117;-83
2023/04/30 14:19:48;;;;;;;6.25;2.45;;;;;;;;;;5061837;28;20041;-81
2023/04/30 14:22:14;;;;;;;7.00;2.17;;;;;;;;;;5061510;28;20052;-82
2023/04/30 14:24:40;;;;;;;6.68;2.13;;;;;;;;;;5061386;28;20045;-81
2023/04/30 14:27:07;;;;;;;6.75;2.30;;;;;;;;;;5062581;28;20037;-81
2023/04/30 14:29:33;;;;;;;5.55;1.90;;;;;;;;;;5058174;28;20527;-82
2023/04/30 14:32:00;;;;;;;6.07;2.20;;;;;;;;;;5048057;28;20813;-82
2023/04/30 14:34:26;;;;;;;15.80;8.50;;;;;;;;;;5062397;28;20049;-82